Data for 03/22/2015

Time Sea-Level Adjusted Pressure Absolute Pressure Temperature Relative Humidity Dew Point   
(mb) (inHg) (mb) (inHg) (C) (F) (%) (C) (F)
00:05 1019 30.09 848 25.04 3.7 38.7 61 -3 26.6
00:10 1019 30.09 848 25.04 3.9 39 61 -3 26.7
00:15 1019 30.09 848 25.04 4.3 39.7 59 -3 26.6
00:20 1019 30.09 848 25.04 4.6 40.2 57 -3.1 26.4
00:25 1019 30.09 848 25.04 4.6 40.3 57 -3.1 26.4
00:30 1019 30.09 848 25.04 4.7 40.4 57 -3.1 26.4
00:35 1019 30.09 848 25.04 4.7 40.4 57 -3.1 26.5
00:40 1019 30.09 849 25.07 4.6 40.3 57 -3.3 26.1
00:45 1020 30.12 849 25.07 4.8 40.7 56 -3.3 26.1
00:50 1020 30.12 849 25.07 5 41 57 -2.8 27
00:55 1020 30.12 849 25.07 5 41 60 -2.2 28.1
01:00 1020 30.12 850 25.1 4.8 40.6 65 -1.1 30
01:05 1020 30.12 850 25.1 4.3 39.8 69 -0.8 30.6
01:10 1020 30.12 850 25.1 3.8 38.9 72 -0.8 30.6
01:15 1020 30.12 850 25.1 3.6 38.5 74 -0.7 30.8
01:20 1020 30.12 850 25.1 3.5 38.4 75 -0.5 31.1
01:25 1021 30.15 850 25.1 3.5 38.3 75 -0.4 31.2
01:30 1021 30.15 850 25.1 3.6 38.4 76 -0.2 31.6
01:35 1021 30.15 850 25.1 3.6 38.5 77 -0.1 31.8
01:40 1021 30.15 850 25.1 3.6 38.5 77 -0.1 31.8
01:45 1021 30.15 850 25.1 3.6 38.5 76 -0.2 31.7
01:50 1021 30.15 850 25.1 3.6 38.4 75 -0.4 31.3
01:55 1021 30.15 850 25.1 3.6 38.4 75 -0.4 31.4
02:00 1021 30.15 850 25.1 3.6 38.4 75 -0.4 31.3
02:05 1021 30.15 850 25.1 3.6 38.5 75 -0.5 31.1
02:10 1021 30.15 850 25.1 3.5 38.4 75 -0.5 31.1
02:15 1021 30.15 850 25.1 3.5 38.3 76 -0.4 31.3
02:20 1020 30.12 850 25.1 3.5 38.3 77 -0.3 31.5
02:25 1020 30.12 850 25.1 3.4 38.2 76 -0.3 31.4
02:30 1020 30.12 850 25.1 3.4 38 77 -0.3 31.4
02:35 1020 30.12 849 25.07 3.3 38 76 -0.6 30.9
02:40 1020 30.12 849 25.07 3.3 38 76 -0.5 31.1
02:45 1020 30.12 849 25.07 3.2 37.8 77 -0.5 31.1
02:50 1020 30.12 849 25.07 3.2 37.7 77 -0.5 31.1
02:55 1020 30.12 849 25.07 3.2 37.7 77 -0.5 31
03:00 1020 30.12 849 25.07 3 37.5 76 -0.7 30.7
03:05 1020 30.12 849 25.07 3.1 37.6 75 -0.9 30.4
03:10 1020 30.12 849 25.07 3.3 37.9 73 -1.1 30
03:15 1020 30.12 849 25.07 3.4 38.1 74 -0.9 30.4
03:20 1020 30.12 849 25.07 3.3 38 73 -1 30.2
03:25 1020 30.12 849 25.07 3.2 37.8 74 -1 30.3
03:30 1020 30.12 849 25.07 3.1 37.6 74 -1 30.1
03:35 1020 30.12 849 25.07 3 37.4 74 -1.2 29.8
03:40 1020 30.12 849 25.07 3 37.4 73 -1.3 29.7
03:45 1020 30.12 849 25.07 3.2 37.8 73 -1.1 30
03:50 1020 30.12 849 25.07 2.8 37.1 77 -0.8 30.6
03:55 1020 30.12 849 25.07 2.1 35.7 81 -0.9 30.4
04:00 1020 30.12 849 25.07 1.8 35.3 81 -1.1 30.1
04:05 1020 30.12 849 25.07 2.1 35.8 79 -1.2 29.9
04:10 1020 30.12 849 25.07 2.2 35.9 80 -1 30.2
04:15 1020 30.12 849 25.07 1.8 35.2 81 -1.1 30
04:20 1020 30.12 849 25.07 1.5 34.7 82 -1.3 29.7
04:25 1020 30.12 849 25.07 1.4 34.5 82 -1.4 29.5
04:30 1020 30.12 849 25.07 1.4 34.4 82 -1.4 29.5
04:35 1020 30.12 849 25.07 1.5 34.6 81 -1.4 29.5
04:40 1020 30.12 849 25.07 1.7 35 79 -1.5 29.2
04:45 1020 30.12 849 25.07 1.7 35 81 -1.3 29.7
04:50 1020 30.12 849 25.07 1.5 34.7 80 -1.6 29.1
04:55 1020 30.12 849 25.07 1.6 34.8 79 -1.7 29
05:00 1020 30.12 849 25.07 1.3 34.3 77 -2.3 27.8
05:05 1020 30.12 850 25.1 1.8 35.2 75 -2.2 28
05:10 1020 30.12 850 25.1 1.7 35 76 -2.1 28.3
05:15 1020 30.12 850 25.1 1.4 34.5 76 -2.3 27.8
05:20 1020 30.12 849 25.07 1.4 34.5 76 -2.4 27.6
05:25 1020 30.12 850 25.1 1.6 34.9 75 -2.4 27.7
05:30 1020 30.12 849 25.07 1.3 34.4 77 -2.2 28
05:35 1020 30.12 849 25.07 0.9 33.6 79 -2.4 27.7
05:40 1020 30.12 849 25.07 0.4 32.8 81 -2.5 27.6
05:45 1020 30.12 850 25.1 0.1 32.1 82 -2.6 27.4
05:50 1020 30.12 850 25.1 -0.2 31.7 83 -2.7 27.2
05:55 1020 30.12 850 25.1 -0.2 31.7 82 -2.8 26.9
06:00 1020 30.12 850 25.1 0.3 32.6 79 -2.8 26.9
06:05 1020 30.12 849 25.07 0.8 33.5 77 -2.8 26.9
06:10 1020 30.12 849 25.07 0.8 33.4 77 -2.7 27.1
06:15 1020 30.12 849 25.07 0.6 33 76 -3.2 26.3
06:20 1020 30.12 849 25.07 0.6 33.1 77 -2.9 26.7
06:25 1020 30.12 850 25.1 0.2 32.4 80 -2.8 26.9
06:30 1020 30.12 850 25.1 0.1 32.1 80 -3 26.6
06:35 1020 30.12 850 25.1 0.3 32.5 78 -3.1 26.4
06:40 1020 30.12 850 25.1 0.7 33.2 77 -2.9 26.8
06:45 1020 30.12 850 25.1 0.8 33.5 77 -2.7 27.2
06:50 1020 30.12 850 25.1 1 33.8 76 -2.7 27.1
06:55 1021 30.15 850 25.1 1.2 34.1 75 -2.8 26.9
07:00 1021 30.15 850 25.1 1.4 34.5 74 -2.8 27
07:05 1021 30.15 850 25.1 1.5 34.7 73 -2.9 26.8
07:10 1021 30.15 850 25.1 1.6 34.9 71 -3.1 26.5
07:15 1021 30.15 850 25.1 2 35.6 68 -3.3 26.1
07:20 1021 30.15 850 25.1 2.3 36.1 66 -3.3 26
07:25 1020 30.12 850 25.1 2.5 36.5 65 -3.4 25.9
07:30 1020 30.12 850 25.1 2.8 37 64 -3.3 26.1
07:35 1020 30.12 850 25.1 3.1 37.6 63 -3.2 26.2
07:40 1020 30.12 850 25.1 3.2 37.7 61 -3.7 25.4
07:45 1020 30.12 850 25.1 3.6 38.5 60 -3.5 25.7
07:50 1020 30.12 850 25.1 3.9 39.1 59 -3.3 26.1
07:55 1020 30.12 850 25.1 4 39.2 59 -3.2 26.2
08:00 1021 30.15 850 25.1 4.4 39.9 59 -2.9 26.8
08:05 1021 30.15 850 25.1 5 41.1 55 -3.3 26
08:10 1021 30.15 850 25.1 5.1 41.1 56 -3.1 26.5
08:15 1021 30.15 850 25.1 5.2 41.4 54 -3.3 26.1
08:20 1021 30.15 850 25.1 5.6 42.1 53 -3.3 26.1
08:25 1021 30.15 850 25.1 6.3 43.3 51 -3.2 26.3
08:30 1021 30.15 850 25.1 6.8 44.2 51 -2.7 27.1
08:35 1021 30.15 850 25.1 6.9 44.5 49 -2.9 26.8
08:40 1021 30.15 850 25.1 7.1 44.7 49 -3 26.6
08:45 1021 30.15 850 25.1 7.5 45.5 46 -3.3 26
08:50 1021 30.15 850 25.1 7.5 45.4 44 -4.1 24.7
08:55 1021 30.15 850 25.1 7.2 44.9 48 -3.2 26.2
09:00 1021 30.15 850 25.1 7.7 45.8 45 -3.6 25.5
09:05 1021 30.15 850 25.1 7.5 45.4 44 -4.1 24.6
09:10 1021 30.15 850 25.1 7.4 45.4 46 -3.5 25.8
09:15 1021 30.15 850 25.1 8.1 46.6 40 -4.6 23.6
09:20 1021 30.15 850 25.1 7.9 46.2 39 -5.1 22.9
09:25 1021 30.15 850 25.1 7.6 45.7 43 -4 24.7
09:30 1021 30.15 850 25.1 8.4 47.1 39 -4.6 23.7
09:35 1021 30.15 850 25.1 8.9 48.1 37 -4.8 23.3
09:40 1021 30.15 850 25.1 9 48.2 36 -5.2 22.7
09:45 1021 30.15 850 25.1 9.6 49.2 38 -4.1 24.5
09:50 1021 30.15 850 25.1 9.6 49.3 36 -4.6 23.8
09:55 1021 30.15 850 25.1 10.3 50.5 37 -3.9 25
10:00 1021 30.15 850 25.1 10.1 50.2 38 -3.6 25.6
10:05 1021 30.15 850 25.1 10 50 36 -4.4 24.1
10:10 1021 30.15 850 25.1 10.3 50.6 35 -4.3 24.3
10:15 1020 30.12 850 25.1 10.1 50.2 33 -5.4 22.2
10:20 1020 30.12 850 25.1 10.2 50.4 32 -5.7 21.8
10:25 1020 30.12 850 25.1 10.7 51.3 31 -5.7 21.8
10:30 1020 30.12 850 25.1 10.7 51.3 31 -5.9 21.4
10:35 1020 30.12 850 25.1 11.2 52.1 28 -6.6 20.1
10:40 1020 30.12 850 25.1 10.7 51.2 30 -6.2 20.9
10:45 1020 30.12 850 25.1 11.4 52.5 28 -6.4 20.4
10:50 1020 30.12 850 25.1 11.8 53.2 26 -7.3 18.8
10:55 1020 30.12 849 25.07 11.4 52.5 25 -7.7 18.1
11:00 1020 30.12 849 25.07 11.7 53.1 24 -8.4 16.9
11:05 1020 30.12 849 25.07 11.3 52.3 22 -9.4 15.1
11:10 1020 30.12 849 25.07 11.7 53.1 21 -9.8 14.3
11:15 1020 30.12 849 25.07 12.3 54.1 22 -9 15.9
11:20 1020 30.12 849 25.07 12.9 55.2 20 -9.8 14.3
11:25 1020 30.12 849 25.07 13 55.4 21 -8.7 16.4
11:30 1020 30.12 849 25.07 13 55.3 21 -9 15.8
11:35 1020 30.12 849 25.07 12 53.7 21 -9.7 14.6
11:40 1020 30.12 849 25.07 12 53.6 20 -10 13.9
11:45 1020 30.12 849 25.07 13.4 56.1 19 -9.9 14.1
11:50 1020 30.12 849 25.07 13.6 56.6 19 -9.4 15.1
11:55 1020 30.12 849 25.07 13 55.4 17 -11.2 11.8
12:00 1020 30.12 849 25.07 13.3 55.9 17 -11.6 11.2
12:05 1020 30.12 849 25.07 13.3 55.9 17 -11.1 12
12:10 1020 30.12 849 25.07 13.7 56.6 16 -12.1 10.3
12:15 1020 30.12 849 25.07 14 57.1 15 -12.1 10.1
12:20 1020 30.12 849 25.07 14.1 57.4 16 -11.7 10.9
12:25 1020 30.12 849 25.07 14.3 57.8 15 -12 10.4
12:30 1020 30.12 849 25.07 15.1 59.1 16 -10.6 13
12:35 1020 30.12 849 25.07 14.6 58.3 15 -11.7 10.9
12:40 1020 30.12 849 25.07 13.8 56.8 16 -11.4 11.5
12:45 1020 30.12 849 25.07 13.7 56.6 16 -11.8 10.8
12:50 1020 30.12 849 25.07 12.9 55.1 17 -11.6 11.1
12:55 1019 30.09 849 25.07 13.1 55.6 16 -12.4 9.7
13:00 1019 30.09 849 25.07 14.1 57.3 15 -12.2 10.1
13:05 1019 30.09 849 25.07 14.4 57.8 15 -12 10.4
13:10 1019 30.09 848 25.04 14.1 57.4 15 -12.2 10.1
13:15 1019 30.09 848 25.04 14.2 57.6 15 -12.1 10.1
13:20 1019 30.09 848 25.04 13.7 56.7 15 -12.4 9.8
13:25 1019 30.09 848 25.04 14.3 57.8 15 -11.9 10.6
13:30 1019 30.09 848 25.04 14.5 58 15 -11.9 10.7
13:35 1019 30.09 848 25.04 13.4 56.1 15 -13 8.6
13:40 1019 30.09 848 25.04 14.2 57.5 15 -12.5 9.6
13:45 1019 30.09 848 25.04 13.5 56.2 15 -12.9 8.8
13:50 1019 30.09 848 25.04 13.9 57 14 -12.8 8.9
13:55 1019 30.09 848 25.04 15 59.1 13 -12.8 8.9
14:00 1018 30.06 848 25.04 15.1 59.2 13 -12.7 9.1
14:05 1018 30.06 848 25.04 14.4 57.8 13 -13.6 7.4
14:10 1018 30.06 848 25.04 15.1 59.2 12 -13.6 7.5
14:15 1018 30.06 848 25.04 14.6 58.3 12 -14.8 5.4
14:20 1018 30.06 847 25.01 14.8 58.6 11 -15 4.9
14:25 1018 30.06 847 25.01 15.7 60.3 11 -15.1 4.8
14:30 1018 30.06 847 25.01 15.9 60.6 11 -14.7 5.5
14:35 1018 30.06 847 25.01 15.6 60.1 11 -15 5
14:40 1018 30.06 847 25.01 16 60.7 11 -15 5
14:45 1018 30.06 847 25.01 15.9 60.7 11 -14.8 5.3
14:50 1018 30.06 847 25.01 15.5 59.9 11 -14.7 5.5
14:55 1018 30.06 847 25.01 15.7 60.3 11 -14.5 5.9
15:00 1018 30.06 847 25.01 15.1 59.1 11 -15.1 4.9
15:05 1018 30.06 847 25.01 15.2 59.3 11 -15 5
15:10 1018 30.06 847 25.01 15.2 59.3 11 -14.6 5.6
15:15 1018 30.06 847 25.01 14.9 58.8 12 -14.7 5.5
15:20 1018 30.06 847 25.01 14.6 58.3 12 -14.4 6
15:25 1018 30.06 847 25.01 14.4 57.9 12 -14.5 5.9
15:30 1018 30.06 847 25.01 14.5 58 13 -14 6.8
15:35 1018 30.06 847 25.01 14.5 58.1 13 -13.7 7.3
15:40 1018 30.06 847 25.01 14.6 58.2 12 -14.1 6.5
15:45 1018 30.06 847 25.01 14.4 58 13 -13.8 7.1
15:50 1018 30.06 847 25.01 14.5 58.1 13 -14 6.9
15:55 1018 30.06 847 25.01 14.5 58.2 12 -14.2 6.4
16:00 1018 30.06 847 25.01 14.7 58.4 12 -14.1 6.6
16:05 1018 30.06 847 25.01 14.9 58.8 13 -13.8 7.2
16:10 1017 30.03 847 25.01 15.3 59.6 12 -14.3 6.2
16:15 1017 30.03 847 25.01 15.7 60.3 11 -14.5 5.9
16:20 1017 30.03 847 25.01 15.6 60 11 -14.3 6.2
16:25 1017 30.03 847 25.01 15.3 59.5 12 -14.1 6.6
16:30 1017 30.03 847 25.01 15.1 59.1 12 -14.4 6
16:35 1017 30.03 847 25.01 15 58.9 12 -14.7 5.6
16:40 1017 30.03 847 25.01 14.6 58.2 12 -14.9 5.2
16:45 1017 30.03 847 25.01 14.7 58.5 12 -14.7 5.5
16:50 1017 30.03 847 25.01 14.7 58.4 12 -14.9 5.2
16:55 1017 30.03 846 24.98 14.6 58.3 12 -14.4 6
17:00 1017 30.03 846 24.98 14.6 58.2 12 -14.6 5.7
17:05 1017 30.03 846 24.98 14.5 58.1 12 -14.8 5.4
17:10 1017 30.03 846 24.98 14.4 57.9 12 -14.8 5.4
17:15 1017 30.03 846 24.98 14.1 57.3 13 -14.4 6
17:20 1017 30.03 846 24.98 13.8 56.9 13 -14.5 5.9
17:25 1017 30.03 846 24.98 13.6 56.5 12 -14.9 5.2
17:30 1017 30.03 846 24.98 13.6 56.4 13 -14.7 5.5
17:35 1017 30.03 846 24.98 13.5 56.2 13 -14.5 5.9
17:40 1017 30.03 846 24.98 13.3 56 13 -14.5 6
17:45 1017 30.03 846 24.98 13.3 55.9 13 -14.3 6.2
17:50 1017 30.03 846 24.98 13.3 55.9 13 -14.5 5.8
17:55 1017 30.03 846 24.98 13.3 56 13 -14.6 5.8
18:00 1017 30.03 846 24.98 13 55.4 13 -14.5 5.9
18:05 1017 30.03 846 24.98 12.8 55 14 -14 6.8
18:10 1017 30.03 846 24.98 12.7 54.8 14 -14 6.8
18:15 1017 30.03 846 24.98 12.6 54.7 14 -13.8 7.1
18:20 1017 30.03 846 24.98 12.7 54.9 15 -13.5 7.8
18:25 1017 30.03 846 24.98 12.8 55 15 -13.2 8.2
18:30 1017 30.03 846 24.98 12.6 54.6 15 -13 8.5
18:35 1017 30.03 846 24.98 12.3 54.1 17 -12.1 10.3
18:40 1017 30.03 846 24.98 11.9 53.3 18 -11.7 11
18:45 1017 30.03 846 24.98 11.5 52.7 18 -12.2 10
18:50 1017 30.03 846 24.98 11.5 52.6 20 -11 12.2
18:55 1017 30.03 846 24.98 11 51.8 20 -10.9 12.4
19:00 1017 30.03 846 24.98 10.7 51.3 21 -10.7 12.7
19:05 1017 30.03 846 24.98 10.7 51.2 22 -10.3 13.5
19:10 1017 30.03 846 24.98 10.6 51 21 -10.6 12.9
19:15 1017 30.03 846 24.98 10.4 50.8 22 -10.6 13
19:20 1017 30.03 846 24.98 9.9 49.7 24 -9.9 14.1
19:25 1017 30.03 846 24.98 9.3 48.7 25 -9.9 14.1
19:30 1017 30.03 846 24.98 8.7 47.6 28 -8.8 16.2
19:35 1017 30.03 846 24.98 8.1 46.5 29 -9.1 15.7
19:40 1017 30.03 846 24.98 7.8 46 29 -9 15.8
19:45 1017 30.03 846 24.98 7.5 45.5 31 -8.7 16.4
19:50 1017 30.03 846 24.98 7 44.5 28 -10.1 13.8
19:55 1017 30.03 846 24.98 7.4 45.2 25 -11.3 11.6
20:00 1017 30.03 846 24.98 7.8 46 25 -10.9 12.4
20:05 1017 30.03 846 24.98 7.8 46 24 -11.4 11.4
20:10 1017 30.03 846 24.98 7.9 46.2 25 -11.1 12
20:15 1017 30.03 846 24.98 7.6 45.6 25 -11.2 11.9
20:20 1017 30.03 846 24.98 7.3 45.2 26 -11.2 11.9
20:25 1017 30.03 846 24.98 7.1 44.8 26 -11.2 11.8
20:30 1017 30.03 846 24.98 7 44.5 27 -11 12.2
20:35 1017 30.03 846 24.98 6.8 44.2 27 -11.2 11.9
20:40 1017 30.03 846 24.98 6.6 43.8 27 -11.2 11.9
20:45 1017 30.03 846 24.98 6.6 43.9 26 -11.4 11.5
20:50 1017 30.03 846 24.98 6.6 43.8 27 -11.3 11.6
20:55 1017 30.03 846 24.98 6.4 43.6 26 -11.6 11.1
21:00 1017 30.03 846 24.98 6.3 43.3 28 -11.1 12.1
21:05 1017 30.03 846 24.98 5.9 42.7 28 -11.2 11.8
21:10 1017 30.03 846 24.98 6 42.7 28 -11.4 11.4
21:15 1017 30.03 846 24.98 6.1 43 27 -11.5 11.3
21:20 1017 30.03 846 24.98 6.2 43.1 27 -11.4 11.4
21:25 1017 30.03 846 24.98 6 42.8 28 -11.3 11.7
21:30 1017 30.03 846 24.98 5.9 42.5 28 -11.3 11.7
21:35 1017 30.03 846 24.98 5.7 42.3 28 -11.6 11.1
21:40 1017 30.03 846 24.98 5.8 42.4 28 -11.5 11.2
21:45 1017 30.03 846 24.98 5.8 42.5 28 -11.5 11.3
21:50 1017 30.03 846 24.98 5.8 42.4 28 -11.4 11.5
21:55 1017 30.03 846 24.98 5.5 41.9 28 -11.5 11.4
22:00 1016 30 846 24.98 5.5 41.9 28 -11.8 10.7
22:05 1016 30 846 24.98 5.6 42 28 -11.6 11.1
22:10 1016 30 846 24.98 5.4 41.8 28 -11.8 10.8
22:15 1016 30 846 24.98 5.5 41.9 27 -12.2 10
22:20 1016 30 845 24.95 5.7 42.2 27 -12.1 10.2
22:25 1016 30 845 24.95 5.6 42.2 27 -12 10.5
22:30 1016 30 845 24.95 5.5 42 27 -12.2 10.1
22:35 1016 30 845 24.95 5.5 41.9 27 -12 10.3
22:40 1016 30 845 24.95 5.4 41.8 27 -12.3 9.8
22:45 1016 30 845 24.95 5.5 41.8 27 -12.2 10
22:50 1016 30 845 24.95 5.4 41.8 27 -12.3 9.8
22:55 1016 30 845 24.95 5.4 41.7 27 -12.3 9.9
23:00 1016 30 845 24.95 5.4 41.7 26 -12.5 9.6
23:05 1016 30 845 24.95 5.5 41.9 26 -12.5 9.5
23:10 1016 30 845 24.95 5.6 42 27 -12.2 10
23:15 1016 30 845 24.95 5.4 41.8 26 -12.5 9.6
23:20 1016 30 845 24.95 5.5 41.9 26 -12.4 9.7
23:25 1016 30 845 24.95 5.4 41.7 27 -12.3 9.9
23:30 1016 30 845 24.95 5.4 41.7 27 -12.4 9.7
23:35 1016 30 845 24.95 5.5 41.8 26 -12.4 9.6
23:40 1016 30 845 24.95 5.3 41.6 26 -12.5 9.5
23:45 1016 30 845 24.95 5.4 41.8 25 -13.1 8.3
23:50 1015 29.97 845 24.95 5.8 42.5 24 -13.2 8.3
23:55 1015 29.97 845 24.95 5.9 42.6 25 -12.9 8.8
24:00 1015 29.97 845 24.95 5.8 42.4 25 -13 8.6